sensor_id;sensor_type;location;lat;lon;timestamp;pressure;altitude;pressure_sealevel;temperature;humidity
21706;BME280;11014;53.076;18.208;2023-01-08T00:01:36;101234.03;;;11.43;68.91
21706;BME280;11014;53.076;18.208;2023-01-08T00:04:05;101232.38;;;11.42;68.89
21706;BME280;11014;53.076;18.208;2023-01-08T00:06:34;101228.66;;;11.43;68.81
21706;BME280;11014;53.076;18.208;2023-01-08T00:09:02;101237.16;;;11.40;68.85
21706;BME280;11014;53.076;18.208;2023-01-08T00:11:31;101230.34;;;11.38;69.01
21706;BME280;11014;53.076;18.208;2023-01-08T00:14:00;101227.91;;;11.36;68.94
21706;BME280;11014;53.076;18.208;2023-01-08T00:16:30;101226.69;;;11.32;68.79
21706;BME280;11014;53.076;18.208;2023-01-08T00:19:06;101217.56;;;11.33;68.73
21706;BME280;11014;53.076;18.208;2023-01-08T00:21:35;101220.25;;;11.33;69.03
21706;BME280;11014;53.076;18.208;2023-01-08T00:24:05;101208.44;;;11.34;69.02
21706;BME280;11014;53.076;18.208;2023-01-08T00:26:35;101206.22;;;11.31;68.93
21706;BME280;11014;53.076;18.208;2023-01-08T00:29:04;101203.97;;;11.28;68.70
21706;BME280;11014;53.076;18.208;2023-01-08T00:31:36;101199.03;;;11.25;68.80
21706;BME280;11014;53.076;18.208;2023-01-08T00:34:04;101192.25;;;10.98;69.57
21706;BME280;11014;53.076;18.208;2023-01-08T00:36:33;101197.88;;;10.90;69.95
21706;BME280;11014;53.076;18.208;2023-01-08T00:39:02;101190.69;;;10.84;70.06
21706;BME280;11014;53.076;18.208;2023-01-08T00:41:32;101201.03;;;10.80;69.97
21706;BME280;11014;53.076;18.208;2023-01-08T00:44:22;101201.53;;;10.70;70.07
21706;BME280;11014;53.076;18.208;2023-01-08T00:46:54;101198.41;;;10.74;70.35
21706;BME280;11014;53.076;18.208;2023-01-08T00:49:25;101196.59;;;10.67;70.30
21706;BME280;11014;53.076;18.208;2023-01-08T00:52:00;101194.94;;;10.66;70.32
21706;BME280;11014;53.076;18.208;2023-01-08T00:54:29;101198.69;;;10.65;70.33
21706;BME280;11014;53.076;18.208;2023-01-08T00:56:58;101201.38;;;10.65;70.13
21706;BME280;11014;53.076;18.208;2023-01-08T00:59:40;101198.06;;;10.63;70.09
21706;BME280;11014;53.076;18.208;2023-01-08T01:02:09;101195.44;;;10.57;69.96
21706;BME280;11014;53.076;18.208;2023-01-08T01:04:38;101194.00;;;10.54;70.36
21706;BME280;11014;53.076;18.208;2023-01-08T01:07:10;101190.91;;;10.51;70.35
21706;BME280;11014;53.076;18.208;2023-01-08T01:09:43;101199.16;;;10.49;70.08
21706;BME280;11014;53.076;18.208;2023-01-08T01:12:12;101193.19;;;10.47;70.36
21706;BME280;11014;53.076;18.208;2023-01-08T01:14:40;101187.22;;;10.45;70.23
21706;BME280;11014;53.076;18.208;2023-01-08T01:17:23;101186.41;;;10.45;70.15
21706;BME280;11014;53.076;18.208;2023-01-08T01:19:52;101184.75;;;10.44;70.21
21706;BME280;11014;53.076;18.208;2023-01-08T01:22:21;101177.34;;;10.39;70.56
21706;BME280;11014;53.076;18.208;2023-01-08T01:24:54;101175.69;;;10.38;70.40
21706;BME280;11014;53.076;18.208;2023-01-08T01:27:24;101177.94;;;10.41;70.38
21706;BME280;11014;53.076;18.208;2023-01-08T01:29:56;101169.88;;;10.41;70.52
21706;BME280;11014;53.076;18.208;2023-01-08T01:32:25;101165.34;;;10.42;70.60
21706;BME280;11014;53.076;18.208;2023-01-08T01:34:54;101155.84;;;10.39;70.69
21706;BME280;11014;53.076;18.208;2023-01-08T01:37:23;101149.88;;;10.37;70.39
21706;BME280;11014;53.076;18.208;2023-01-08T01:39:54;101149.28;;;10.35;70.63
21706;BME280;11014;53.076;18.208;2023-01-08T01:42:38;101150.53;;;10.33;70.69
21706;BME280;11014;53.076;18.208;2023-01-08T01:45:27;101146.84;;;10.27;70.34
21706;BME280;11014;53.076;18.208;2023-01-08T01:48:03;101149.75;;;10.26;70.39
21706;BME280;11014;53.076;18.208;2023-01-08T01:50:45;101153.91;;;10.22;70.35
21706;BME280;11014;53.076;18.208;2023-01-08T01:55:50;101149.38;;;10.09;70.72
21706;BME280;11014;53.076;18.208;2023-01-08T01:58:23;101138.03;;;10.07;70.74
21706;BME280;11014;53.076;18.208;2023-01-08T02:00:53;101135.38;;;10.00;70.81
21706;BME280;11014;53.076;18.208;2023-01-08T02:03:32;101130.66;;;9.96;70.79
21706;BME280;11014;53.076;18.208;2023-01-08T02:11:40;101128.41;;;9.93;70.88
21706;BME280;11014;53.076;18.208;2023-01-08T02:14:27;101120.75;;;9.96;70.92
21706;BME280;11014;53.076;18.208;2023-01-08T02:17:09;101128.41;;;9.93;70.81
21706;BME280;11014;53.076;18.208;2023-01-08T02:20:08;101120.16;;;9.94;70.88
21706;BME280;11014;53.076;18.208;2023-01-08T02:25:30;101113.56;;;9.84;70.96
21706;BME280;11014;53.076;18.208;2023-01-08T02:28:05;101102.25;;;9.82;70.73
21706;BME280;11014;53.076;18.208;2023-01-08T02:30:37;101106.78;;;9.81;70.76
21706;BME280;11014;53.076;18.208;2023-01-08T02:33:05;101104.94;;;9.82;70.83
21706;BME280;11014;53.076;18.208;2023-01-08T02:36:27;101099.56;;;9.82;70.95
21706;BME280;11014;53.076;18.208;2023-01-08T02:38:28;101097.47;;;9.84;70.81
21706;BME280;11014;53.076;18.208;2023-01-08T02:41:08;101095.44;;;9.86;70.92
21706;BME280;11014;53.076;18.208;2023-01-08T02:43:44;101092.75;;;9.86;70.85
21706;BME280;11014;53.076;18.208;2023-01-08T02:46:24;101095.00;;;9.89;70.96
21706;BME280;11014;53.076;18.208;2023-01-08T02:48:59;101086.75;;;9.84;70.57
21706;BME280;11014;53.076;18.208;2023-01-08T02:51:51;101086.97;;;9.82;70.71
21706;BME280;11014;53.076;18.208;2023-01-08T02:54:27;101085.19;;;9.70;70.83
21706;BME280;11014;53.076;18.208;2023-01-08T02:57:08;101078.59;;;9.66;70.70
21706;BME280;11014;53.076;18.208;2023-01-08T02:59:39;101075.56;;;9.56;70.67
21706;BME280;11014;53.076;18.208;2023-01-08T03:02:11;101072.88;;;9.49;70.82
21706;BME280;11014;53.076;18.208;2023-01-08T03:04:47;101077.06;;;9.38;70.86
21706;BME280;11014;53.076;18.208;2023-01-08T03:07:19;101074.19;;;9.33;70.56
21706;BME280;11014;53.076;18.208;2023-01-08T03:09:48;101073.38;;;9.26;70.57
21706;BME280;11014;53.076;18.208;2023-01-08T03:12:24;101071.75;;;9.19;70.86
21706;BME280;11014;53.076;18.208;2023-01-08T03:15:04;101074.47;;;9.12;70.88
21706;BME280;11014;53.076;18.208;2023-01-08T03:17:49;101068.28;;;9.05;70.84
21706;BME280;11014;53.076;18.208;2023-01-08T03:20:25;101077.59;;;8.96;70.94
21706;BME280;11014;53.076;18.208;2023-01-08T03:22:56;101076.97;;;8.87;71.01
21706;BME280;11014;53.076;18.208;2023-01-08T03:25:26;101073.84;;;8.97;70.75
21706;BME280;11014;53.076;18.208;2023-01-08T03:28:00;101077.81;;;8.68;70.68
21706;BME280;11014;53.076;18.208;2023-01-08T03:30:30;101080.28;;;8.57;71.18
21706;BME280;11014;53.076;18.208;2023-01-08T03:33:01;101074.53;;;8.47;71.30
21706;BME280;11014;53.076;18.208;2023-01-08T03:35:32;101068.13;;;8.48;71.46
21706;BME280;11014;53.076;18.208;2023-01-08T03:41:07;101052.47;;;8.45;71.47
21706;BME280;11014;53.076;18.208;2023-01-08T03:43:39;101055.34;;;8.37;71.67
21706;BME280;11014;53.076;18.208;2023-01-08T03:46:12;101042.53;;;8.25;71.72
21706;BME280;11014;53.076;18.208;2023-01-08T03:48:43;101035.13;;;8.21;71.76
21706;BME280;11014;53.076;18.208;2023-01-08T03:51:14;101030.41;;;8.16;71.78
21706;BME280;11014;53.076;18.208;2023-01-08T03:53:48;101029.59;;;8.16;71.84
21706;BME280;11014;53.076;18.208;2023-01-08T03:56:26;101029.38;;;8.17;71.88
21706;BME280;11014;53.076;18.208;2023-01-08T03:58:55;101031.84;;;8.19;71.67
21706;BME280;11014;53.076;18.208;2023-01-08T04:01:23;101045.41;;;8.17;71.74
21706;BME280;11014;53.076;18.208;2023-01-08T04:03:52;101047.09;;;8.18;71.74
21706;BME280;11014;53.076;18.208;2023-01-08T04:06:21;101041.72;;;8.18;71.86
21706;BME280;11014;53.076;18.208;2023-01-08T04:08:51;101032.03;;;8.17;71.58
21706;BME280;11014;53.076;18.208;2023-01-08T04:11:19;101038.84;;;8.20;71.84
21706;BME280;11014;53.076;18.208;2023-01-08T04:13:49;101038.44;;;8.23;71.58
21706;BME280;11014;53.076;18.208;2023-01-08T04:16:17;101036.81;;;8.28;71.47
21706;BME280;11014;53.076;18.208;2023-01-08T04:18:46;101044.25;;;8.33;71.66
21706;BME280;11014;53.076;18.208;2023-01-08T04:21:15;101034.56;;;8.39;71.51
21706;BME280;11014;53.076;18.208;2023-01-08T04:23:46;101027.16;;;8.41;71.59
21706;BME280;11014;53.076;18.208;2023-01-08T04:26:14;101015.41;;;8.35;71.38
21706;BME280;11014;53.076;18.208;2023-01-08T04:28:43;101011.72;;;8.29;71.60
21706;BME280;11014;53.076;18.208;2023-01-08T04:31:12;101006.72;;;8.26;71.79
21706;BME280;11014;53.076;18.208;2023-01-08T04:33:41;101008.81;;;8.24;71.74
21706;BME280;11014;53.076;18.208;2023-01-08T04:36:09;101014.34;;;8.23;71.53
21706;BME280;11014;53.076;18.208;2023-01-08T04:38:41;101007.38;;;8.42;71.38
21706;BME280;11014;53.076;18.208;2023-01-08T04:41:12;101006.31;;;8.23;71.31
21706;BME280;11014;53.076;18.208;2023-01-08T04:43:41;101006.34;;;8.16;71.46
21706;BME280;11014;53.076;18.208;2023-01-08T04:46:09;101009.41;;;8.13;71.50
21706;BME280;11014;53.076;18.208;2023-01-08T04:48:49;100994.59;;;8.11;71.76
21706;BME280;11014;53.076;18.208;2023-01-08T04:51:18;100981.81;;;8.06;71.45
21706;BME280;11014;53.076;18.208;2023-01-08T04:53:51;100969.28;;;8.00;71.74
21706;BME280;11014;53.076;18.208;2023-01-08T04:56:33;100968.03;;;7.96;71.59
21706;BME280;11014;53.076;18.208;2023-01-08T04:59:02;100961.47;;;7.92;71.77
21706;BME280;11014;53.076;18.208;2023-01-08T05:01:32;100965.16;;;7.91;71.71
21706;BME280;11014;53.076;18.208;2023-01-08T05:04:04;100967.22;;;7.89;71.90
21706;BME280;11014;53.076;18.208;2023-01-08T05:06:32;100967.22;;;7.89;71.73
21706;BME280;11014;53.076;18.208;2023-01-08T05:09:02;100969.25;;;7.87;71.75
21706;BME280;11014;53.076;18.208;2023-01-08T05:11:34;100965.56;;;7.88;71.76
21706;BME280;11014;53.076;18.208;2023-01-08T05:14:04;100965.13;;;7.85;72.01
21706;BME280;11014;53.076;18.208;2023-01-08T05:16:37;100960.81;;;7.84;71.91
21706;BME280;11014;53.076;18.208;2023-01-08T05:19:06;100961.63;;;7.84;71.86
21706;BME280;11014;53.076;18.208;2023-01-08T05:21:37;100944.97;;;7.82;71.82
21706;BME280;11014;53.076;18.208;2023-01-08T05:24:06;100947.03;;;7.80;72.05
21706;BME280;11014;53.076;18.208;2023-01-08T05:26:37;100950.31;;;7.82;71.80
21706;BME280;11014;53.076;18.208;2023-01-08T05:29:06;100948.28;;;7.78;72.07
21706;BME280;11014;53.076;18.208;2023-01-08T05:31:45;100935.09;;;7.76;72.01
21706;BME280;11014;53.076;18.208;2023-01-08T05:34:17;100937.16;;;7.74;72.11
21706;BME280;11014;53.076;18.208;2023-01-08T05:36:48;100943.53;;;7.73;71.88
21706;BME280;11014;53.076;18.208;2023-01-08T05:39:19;100938.19;;;7.73;71.94
21706;BME280;11014;53.076;18.208;2023-01-08T05:41:50;100927.91;;;7.70;72.17
21706;BME280;11014;53.076;18.208;2023-01-08T05:44:23;100933.66;;;7.67;72.22
21706;BME280;11014;53.076;18.208;2023-01-08T05:46:54;100918.44;;;7.67;72.47
21706;BME280;11014;53.076;18.208;2023-01-08T05:49:26;100906.31;;;7.65;72.48
21706;BME280;11014;53.076;18.208;2023-01-08T05:51:54;100883.66;;;7.61;72.45
21706;BME280;11014;53.076;18.208;2023-01-08T05:54:23;100891.06;;;7.59;72.64
21706;BME280;11014;53.076;18.208;2023-01-08T05:56:52;100893.94;;;7.57;72.70
21706;BME280;11014;53.076;18.208;2023-01-08T05:59:21;100894.75;;;7.58;72.46
21706;BME280;11014;53.076;18.208;2023-01-08T06:01:51;100891.47;;;7.56;72.73
21706;BME280;11014;53.076;18.208;2023-01-08T06:04:24;100889.63;;;7.56;72.89
21706;BME280;11014;53.076;18.208;2023-01-08T06:06:52;100898.47;;;7.57;72.67
21706;BME280;11014;53.076;18.208;2023-01-08T06:09:21;100898.88;;;7.54;72.62
21706;BME280;11014;53.076;18.208;2023-01-08T06:11:50;100909.59;;;7.54;72.86
21706;BME280;11014;53.076;18.208;2023-01-08T06:14:23;100908.13;;;7.58;72.86
21706;BME280;11014;53.076;18.208;2023-01-08T06:16:59;100918.22;;;7.56;73.22
21706;BME280;11014;53.076;18.208;2023-01-08T06:19:28;100922.31;;;7.58;73.29
21706;BME280;11014;53.076;18.208;2023-01-08T06:21:56;100920.25;;;7.60;73.04
21706;BME280;11014;53.076;18.208;2023-01-08T06:24:25;100936.72;;;7.64;73.09
21706;BME280;11014;53.076;18.208;2023-01-08T06:26:56;100939.19;;;7.65;73.27
21706;BME280;11014;53.076;18.208;2023-01-08T06:29:27;100937.97;;;7.61;73.46
21706;BME280;11014;53.076;18.208;2023-01-08T06:31:56;100932.00;;;7.59;73.36
21706;BME280;11014;53.076;18.208;2023-01-08T06:34:25;100923.16;;;7.59;73.53
21706;BME280;11014;53.076;18.208;2023-01-08T06:36:55;100923.16;;;7.59;73.20
21706;BME280;11014;53.076;18.208;2023-01-08T06:39:24;100927.06;;;7.56;73.38
21706;BME280;11014;53.076;18.208;2023-01-08T06:41:57;100923.75;;;7.54;73.29
21706;BME280;11014;53.076;18.208;2023-01-08T06:44:35;100928.06;;;7.49;73.27
21706;BME280;11014;53.076;18.208;2023-01-08T06:47:22;100930.72;;;7.49;73.25
21706;BME280;11014;53.076;18.208;2023-01-08T06:49:54;100935.50;;;7.66;73.03
21706;BME280;11014;53.076;18.208;2023-01-08T06:52:22;100917.38;;;7.49;72.87
21706;BME280;11014;53.076;18.208;2023-01-08T06:54:56;100924.16;;;7.45;72.92
21706;BME280;11014;53.076;18.208;2023-01-08T06:57:26;100921.28;;;7.40;73.14
21706;BME280;11014;53.076;18.208;2023-01-08T06:59:55;100915.94;;;7.40;73.53
21706;BME280;11014;53.076;18.208;2023-01-08T07:02:34;100927.63;;;7.39;73.46
21706;BME280;11014;53.076;18.208;2023-01-08T07:05:22;100928.25;;;7.41;73.58
21706;BME280;11014;53.076;18.208;2023-01-08T07:07:50;100922.72;;;7.42;73.78
21706;BME280;11014;53.076;18.208;2023-01-08T07:10:27;100918.41;;;7.48;73.53
21706;BME280;11014;53.076;18.208;2023-01-08T07:13:03;100925.63;;;7.54;73.71
21706;BME280;11014;53.076;18.208;2023-01-08T07:15:49;100910.59;;;7.53;73.59
21706;BME280;11014;53.076;18.208;2023-01-08T07:18:52;100909.16;;;7.57;73.75
21706;BME280;11014;53.076;18.208;2023-01-08T07:21:28;100907.13;;;7.59;73.85
21706;BME280;11014;53.076;18.208;2023-01-08T07:24:07;100917.16;;;7.57;73.78
21706;BME280;11014;53.076;18.208;2023-01-08T07:26:53;100913.69;;;7.63;73.74
21706;BME280;11014;53.076;18.208;2023-01-08T07:29:50;100905.47;;;7.64;73.74
21706;BME280;11014;53.076;18.208;2023-01-08T07:32:28;100901.56;;;7.67;73.59
21706;BME280;11014;53.076;18.208;2023-01-08T07:35:16;100897.66;;;7.69;73.77
21706;BME280;11014;53.076;18.208;2023-01-08T07:37:51;100893.16;;;7.70;73.68
21706;BME280;11014;53.076;18.208;2023-01-08T07:40:22;100893.16;;;7.70;73.99
21706;BME280;11014;53.076;18.208;2023-01-08T07:43:11;100888.59;;;7.77;73.72
21706;BME280;11014;53.076;18.208;2023-01-08T07:45:40;100895.22;;;7.81;73.61
21706;BME280;11014;53.076;18.208;2023-01-08T07:48:13;100892.94;;;7.85;73.64
21706;BME280;11014;53.076;18.208;2023-01-08T07:50:47;100903.81;;;7.90;73.85
21706;BME280;11014;53.076;18.208;2023-01-08T07:53:17;100910.19;;;7.95;73.94
21706;BME280;11014;53.076;18.208;2023-01-08T07:56:29;100903.84;;;8.03;73.91
21706;BME280;11014;53.076;18.208;2023-01-08T07:59:02;100895.81;;;8.03;73.77
21706;BME280;11014;53.076;18.208;2023-01-08T08:01:32;100894.16;;;8.02;73.90
21706;BME280;11014;53.076;18.208;2023-01-08T08:04:04;100882.22;;;8.04;73.80
21706;BME280;11014;53.076;18.208;2023-01-08T08:06:35;100876.47;;;8.07;73.73
21706;BME280;11014;53.076;18.208;2023-01-08T08:09:21;100884.47;;;8.07;74.00
21706;BME280;11014;53.076;18.208;2023-01-08T08:11:52;100884.06;;;8.10;73.80
21706;BME280;11014;53.076;18.208;2023-01-08T08:14:21;100880.16;;;8.13;73.54
21706;BME280;11014;53.076;18.208;2023-01-08T08:24:43;100859.16;;;8.29;73.74
21706;BME280;11014;53.076;18.208;2023-01-08T08:28:18;100856.25;;;8.31;73.24
21706;BME280;11014;53.076;18.208;2023-01-08T08:35:14;100866.53;;;8.41;73.31
21706;BME280;11014;53.076;18.208;2023-01-08T08:38:04;100867.16;;;8.49;73.42
21706;BME280;11014;53.076;18.208;2023-01-08T08:40:34;100871.84;;;8.54;73.65
21706;BME280;11014;53.076;18.208;2023-01-08T08:43:16;100871.03;;;8.60;73.61
21706;BME280;11014;53.076;18.208;2023-01-08T08:46:12;100869.72;;;8.69;73.84
21706;BME280;11014;53.076;18.208;2023-01-08T08:54:25;100869.88;;;8.87;73.18
21706;BME280;11014;53.076;18.208;2023-01-08T08:58:00;100865.28;;;8.94;73.41
21706;BME280;11014;53.076;18.208;2023-01-08T09:01:10;100870.84;;;8.99;73.44
21706;BME280;11014;53.076;18.208;2023-01-08T09:04:21;100865.63;;;9.11;73.54
21706;BME280;11014;53.076;18.208;2023-01-08T09:07:07;100852.81;;;9.13;73.45
21706;BME280;11014;53.076;18.208;2023-01-08T09:09:37;100846.25;;;9.15;73.66
21706;BME280;11014;53.076;18.208;2023-01-08T09:12:40;100841.81;;;9.27;73.58
21706;BME280;11014;53.076;18.208;2023-01-08T09:16:35;100840.09;;;9.39;73.25
21706;BME280;11014;53.076;18.208;2023-01-08T09:23:52;100834.91;;;9.44;72.53
21706;BME280;11014;53.076;18.208;2023-01-08T09:26:56;100837.75;;;9.49;72.69
21706;BME280;11014;53.076;18.208;2023-01-08T09:29:32;100832.94;;;9.58;72.96
21706;BME280;11014;53.076;18.208;2023-01-08T09:32:20;100819.91;;;9.62;72.84
21706;BME280;11014;53.076;18.208;2023-01-08T09:34:48;100822.97;;;9.65;73.00
21706;BME280;11014;53.076;18.208;2023-01-08T09:37:20;100816.50;;;9.73;72.64
21706;BME280;11014;53.076;18.208;2023-01-08T09:39:54;100811.91;;;9.80;72.89
21706;BME280;11014;53.076;18.208;2023-01-08T09:42:30;100812.88;;;9.85;72.40
21706;BME280;11014;53.076;18.208;2023-01-08T09:45:27;100813.03;;;9.90;72.20
21706;BME280;11014;53.076;18.208;2023-01-08T09:48:27;100808.94;;;9.88;71.76
21706;BME280;11014;53.076;18.208;2023-01-08T09:51:29;100815.66;;;9.97;72.15
21706;BME280;11014;53.076;18.208;2023-01-08T09:56:00;100807.47;;;10.10;71.30
21706;BME280;11014;53.076;18.208;2023-01-08T09:59:20;100809.34;;;10.09;71.16
21706;BME280;11014;53.076;18.208;2023-01-08T10:02:57;100804.56;;;10.11;70.89
21706;BME280;11014;53.076;18.208;2023-01-08T10:05:56;100800.00;;;10.12;71.04
21706;BME280;11014;53.076;18.208;2023-01-08T10:08:46;100796.63;;;10.23;71.04
21706;BME280;11014;53.076;18.208;2023-01-08T10:11:19;100796.91;;;10.33;70.97
21706;BME280;11014;53.076;18.208;2023-01-08T10:14:39;100794.53;;;10.43;70.58
21706;BME280;11014;53.076;18.208;2023-01-08T10:19:50;100798.66;;;10.57;70.34
21706;BME280;11014;53.076;18.208;2023-01-08T10:22:43;100799.81;;;10.68;70.03
21706;BME280;11014;53.076;18.208;2023-01-08T10:25:22;100798.97;;;10.67;69.67
21706;BME280;11014;53.076;18.208;2023-01-08T10:28:20;100788.13;;;10.74;69.57
21706;BME280;11014;53.076;18.208;2023-01-08T10:31:45;100784.31;;;10.82;68.97
21706;BME280;11014;53.076;18.208;2023-01-08T10:38:55;100781.84;;;10.80;68.54
21706;BME280;11014;53.076;18.208;2023-01-08T10:42:03;100777.88;;;10.83;68.58
21706;BME280;11014;53.076;18.208;2023-01-08T10:45:03;100769.94;;;10.88;68.64
21706;BME280;11014;53.076;18.208;2023-01-08T10:48:01;100773.25;;;10.90;68.50
21706;BME280;11014;53.076;18.208;2023-01-08T10:50:36;100771.59;;;10.89;68.64
21706;BME280;11014;53.076;18.208;2023-01-08T10:53:41;100772.56;;;10.94;68.32
21706;BME280;11014;53.076;18.208;2023-01-08T10:56:20;100767.19;;;10.94;68.24
21706;BME280;11014;53.076;18.208;2023-01-08T10:59:42;100765.81;;;11.03;68.34
21706;BME280;11014;53.076;18.208;2023-01-08T11:02:33;100752.38;;;11.15;68.48
21706;BME280;11014;53.076;18.208;2023-01-08T11:05:07;100737.06;;;11.15;68.14
21706;BME280;11014;53.076;18.208;2023-01-08T11:07:39;100738.25;;;11.19;68.03
21706;BME280;11014;53.076;18.208;2023-01-08T11:10:23;100722.00;;;11.26;68.00
21706;BME280;11014;53.076;18.208;2023-01-08T11:12:58;100717.44;;;11.26;67.67
21706;BME280;11014;53.076;18.208;2023-01-08T11:15:33;100727.84;;;11.23;67.70
21706;BME280;11014;53.076;18.208;2023-01-08T11:18:22;100730.69;;;11.28;67.87
21706;BME280;11014;53.076;18.208;2023-01-08T11:20:52;100731.72;;;11.27;67.75
21706;BME280;11014;53.076;18.208;2023-01-08T11:23:23;100717.34;;;11.33;67.81
21706;BME280;11014;53.076;18.208;2023-01-08T11:26:07;100709.03;;;11.46;67.87
21706;BME280;11014;53.076;18.208;2023-01-08T11:28:55;100706.72;;;11.50;67.29
21706;BME280;11014;53.076;18.208;2023-01-08T11:31:38;100696.88;;;11.55;67.41
21706;BME280;11014;53.076;18.208;2023-01-08T11:34:21;100691.63;;;11.60;67.16
21706;BME280;11014;53.076;18.208;2023-01-08T11:37:01;100688.69;;;11.62;67.04
21706;BME280;11014;53.076;18.208;2023-01-08T11:39:33;100691.88;;;11.70;66.97
21706;BME280;11014;53.076;18.208;2023-01-08T11:42:13;100687.66;;;11.74;66.71
21706;BME280;11014;53.076;18.208;2023-01-08T11:44:57;100690.94;;;11.76;66.50
21706;BME280;11014;53.076;18.208;2023-01-08T11:50:49;100701.66;;;11.53;66.13
21706;BME280;11014;53.076;18.208;2023-01-08T11:53:42;100711.75;;;11.46;66.03
21706;BME280;11014;53.076;18.208;2023-01-08T11:59:45;100702.75;;;11.52;66.82
21706;BME280;11014;53.076;18.208;2023-01-08T12:06:07;100698.91;;;11.71;66.43
21706;BME280;11014;53.076;18.208;2023-01-08T12:09:19;100691.88;;;11.70;66.39
21706;BME280;11014;53.076;18.208;2023-01-08T12:12:16;100689.75;;;11.72;66.27
21706;BME280;11014;53.076;18.208;2023-01-08T12:24:02;100674.53;;;11.89;65.83
21706;BME280;11014;53.076;18.208;2023-01-08T12:29:21;100676.44;;;11.77;66.10
21706;BME280;11014;53.076;18.208;2023-01-08T12:34:57;100669.13;;;11.89;66.19
21706;BME280;11014;53.076;18.208;2023-01-08T12:40:24;100650.00;;;12.03;66.20
21706;BME280;11014;53.076;18.208;2023-01-08T12:42:57;100644.72;;;12.08;65.88
21706;BME280;11014;53.076;18.208;2023-01-08T12:45:38;100632.72;;;12.27;65.68
21706;BME280;11014;53.076;18.208;2023-01-08T12:48:14;100631.97;;;12.43;65.57
21706;BME280;11014;53.076;18.208;2023-01-08T12:50:47;100626.75;;;12.53;65.08
21706;BME280;11014;53.076;18.208;2023-01-08T13:05:30;100607.63;;;12.55;64.58
21706;BME280;11014;53.076;18.208;2023-01-08T13:08:24;100605.03;;;12.43;64.57
21706;BME280;11014;53.076;18.208;2023-01-08T13:11:21;100595.34;;;12.30;64.71
21706;BME280;11014;53.076;18.208;2023-01-08T13:14:22;100580.16;;;12.24;64.95
21706;BME280;11014;53.076;18.208;2023-01-08T13:17:07;100582.09;;;12.12;64.98
21706;BME280;11014;53.076;18.208;2023-01-08T13:20:59;100583.78;;;12.02;65.02
21706;BME280;11014;53.076;18.208;2023-01-08T13:23:35;100594.47;;;11.97;64.98
21706;BME280;11014;53.076;18.208;2023-01-08T13:26:37;100572.16;;;11.84;65.37
21706;BME280;11014;53.076;18.208;2023-01-08T13:29:47;100577.44;;;11.79;65.61
21706;BME280;11014;53.076;18.208;2023-01-08T13:32:43;100559.28;;;11.75;65.81
21706;BME280;11014;53.076;18.208;2023-01-08T13:40:54;100568.81;;;11.54;66.25
21706;BME280;11014;53.076;18.208;2023-01-08T13:43:27;100562.25;;;11.73;66.04
21706;BME280;11014;53.076;18.208;2023-01-08T13:49:43;100568.00;;;11.54;66.46
21706;BME280;11014;53.076;18.208;2023-01-08T13:53:01;100577.34;;;11.51;66.49
21706;BME280;11014;53.076;18.208;2023-01-08T13:56:39;100575.38;;;11.58;66.59
21706;BME280;11014;53.076;18.208;2023-01-08T13:59:56;100581.22;;;11.55;66.51
21706;BME280;11014;53.076;18.208;2023-01-08T14:02:30;100587.38;;;11.56;66.83
21706;BME280;11014;53.076;18.208;2023-01-08T14:05:17;100580.75;;;11.58;66.89
21706;BME280;11014;53.076;18.208;2023-01-08T14:07:52;100576.50;;;11.62;66.60
21706;BME280;11014;53.076;18.208;2023-01-08T14:10:28;100576.50;;;11.62;66.68
21706;BME280;11014;53.076;18.208;2023-01-08T14:13:27;100587.50;;;11.72;66.94
21706;BME280;11014;53.076;18.208;2023-01-08T14:16:09;100592.88;;;11.72;66.73
21706;BME280;11014;53.076;18.208;2023-01-08T14:18:40;100588.44;;;11.66;66.66
21706;BME280;11014;53.076;18.208;2023-01-08T14:21:44;100594.53;;;11.73;66.76
21706;BME280;11014;53.076;18.208;2023-01-08T14:24:18;100585.16;;;11.64;66.28
21706;BME280;11014;53.076;18.208;2023-01-08T14:26:52;100586.22;;;11.63;66.62
21706;BME280;11014;53.076;18.208;2023-01-08T14:29:23;100577.09;;;11.64;66.50
21706;BME280;11014;53.076;18.208;2023-01-08T14:31:57;100588.44;;;11.66;66.68
21706;BME280;11014;53.076;18.208;2023-01-08T14:34:36;100593.97;;;11.71;66.82
21706;BME280;11014;53.076;18.208;2023-01-08T14:37:14;100584.25;;;11.70;66.61
21706;BME280;11014;53.076;18.208;2023-01-08T14:39:45;100589.88;;;11.69;66.46
21706;BME280;11014;53.076;18.208;2023-01-08T14:42:36;100583.63;;;11.68;66.74
21706;BME280;11014;53.076;18.208;2023-01-08T14:48:31;100586.72;;;11.72;66.62
21706;BME280;11014;53.076;18.208;2023-01-08T14:52:01;100580.94;;;11.68;66.32
21706;BME280;11014;53.076;18.208;2023-01-08T14:55:20;100569.63;;;11.66;66.29
21706;BME280;11014;53.076;18.208;2023-01-08T14:58:42;100562.00;;;11.63;66.38
21706;BME280;11014;53.076;18.208;2023-01-08T15:01:22;100558.16;;;11.59;66.56
21706;BME280;11014;53.076;18.208;2023-01-08T15:04:25;100556.75;;;11.57;66.34
21706;BME280;11014;53.076;18.208;2023-01-08T15:07:32;100552.78;;;11.59;66.75
21706;BME280;11014;53.076;18.208;2023-01-08T15:13:49;100533.56;;;11.39;66.96
21706;BME280;11014;53.076;18.208;2023-01-08T15:16:38;100519.03;;;11.40;66.99
21706;BME280;11014;53.076;18.208;2023-01-08T15:19:15;100527.00;;;11.35;66.98
21706;BME280;11014;53.076;18.208;2023-01-08T15:21:47;100526.78;;;11.25;67.10
21706;BME280;11014;53.076;18.208;2023-01-08T15:24:33;100515.78;;;11.26;67.47
21706;BME280;11014;53.076;18.208;2023-01-08T15:29:03;100526.91;;;11.30;66.88
21706;BME280;11014;53.076;18.208;2023-01-08T15:31:52;100519.31;;;11.27;66.88
21706;BME280;11014;53.076;18.208;2023-01-08T15:34:29;100513.91;;;11.27;67.03